x

Buoy F01 - West Penobscot Bay (44033) Wave Buoy

2:04 - Mon 20th Feb 2017 All times are EST. -5 hours from GMT.

  • Sig Wave height 1.3ft
  • Peak Period 3s
  • Wind
    16mph, 22mph gusts
  • Sea Temp 36°f
  • Ar Temp 38°f
  • Sea Pressure 1012.2mb
  • Buoy F01 - West Penobscot Bay
  • Buoy F01 - West Penobscot Bay

More Historic Weather Station data

Upgrade to MSW Pro to gain access to the past 30 days of data for over 8000 Wavebouys and Weather Stations around the globe.

Join Pro

Comparision Forecast

View Surf forecast
   
Seg 02/20 2:04 1.3ft 3s 16 22 mph 1012.2mb 36f 38f
1:04 1.3ft 3s 16 18 mph 1011.7mb 36f 38f
12:04 1.3ft 5s 18 22 mph 1011mb 36f 39f
Dom 02/19 11:04 1.6ft 3s 11
mph
1010.6mb 36f 39f
10:04 1.6ft 6s 13 18 mph 1010mb 36f 40f
9:04 1.6ft 6s 4 7 mph 1008.7mb 36f 41f
8:04 1.6ft 6s 9
mph
1008mb 37f 43f
7:04 2ft 6s 11 16 mph 1007.1mb 37f 43f
6:04 2.5ft 6s 18 22 mph 1006.4mb 37f 46f
5:04 2ft 6s 16 20 mph 1004.7mb 37f 47f
4:04 2.5ft 8s 16 20 mph 1003.6mb 37f 48f
3:04 2ft 5s 11 13 mph 1002.5mb 37f 41f
2:04 2ft 6s 7 9 mph 1001.4mb 37f 40f
1:04 2ft 6s 11
mph
1001.2mb 37f 42f
12:04 2ft 6s 9
mph
1001.5mb 37f 41f
11:04 2ft 6s 7 9 mph 1002.1mb 37f 41f
10:04 2.5ft 8s 4 7 mph 1002.5mb 36f 41f
9:04 2.5ft 6s 9 11 mph 1002.4mb 36f 40f
8:04 2.5ft 8s 9 11 mph 1001.7mb 36f 39f
7:04 2.5ft 8s 9
mph
1001.1mb 36f 39f
6:04 3.5ft 8s 7 9 mph 1000.2mb 36f 38f
5:04 3ft 8s 7 9 mph 998.7mb 36f 40f
4:04 2.5ft 8s 7 9 mph 998.1mb 36f 40f
3:04 2.5ft 8s 2 4 mph 997.4mb 36f 40f
2:04 3ft 8s 7 9 mph 997.3mb 36f 41f
1:04 3.5ft 8s 9
mph
997mb 36f 40f
12:04 3.5ft 6s 9 11 mph 997mb 36f 41f
Sáb 02/18 11:04 3.5ft 6s 13 18 mph 996.6mb 36f 41f
10:04 3.5ft 6s 18 22 mph 996.2mb 36f 42f
9:04 3.5ft 6s 18 20 mph 996mb 36f 41f
8:04 3ft 6s 16 20 mph 996.4mb 36f 42f
7:04 3ft 6s 9 11 mph 997.1mb 36f 39f
6:04 2.5ft 5s 9 13 mph 998.1mb 36f 39f
5:04 2.5ft 5s 9
mph
998.7mb 36f 38f
4:04 2ft 3s 11 13 mph 999.8mb 36f 39f
3:04 1.6ft 4s 11 18 mph 1001mb 36f 38f
2:04 1.6ft 3s 11 13 mph 1001.4mb 36f 36f
1:04 1ft 2s 13 16 mph 1003.1mb 36f 36f
12:04 0.7ft  -  9 11 mph 1004.7mb 36f 37f
11:04 0.7ft  -  7
mph
1005.5mb 36f 36f
10:04 1ft 11s 7
mph
1006.7mb 36f 34f
9:04 1ft 11s 4
mph
1006.8mb 36f 31f
8:04 1ft 5s 4
mph
1007.5mb 36f 29f
7:04 1ft 11s 7
mph
1008.2mb 36f 29f
6:04 1ft 5s 11 13 mph 1007.6mb 36f 29f
5:04 0.7ft  -  9 11 mph 1007.5mb 36f 28f
4:04 1ft 5s 13 16 mph 1007.2mb 36f 27f
3:04 1ft 5s 11 16 mph 1007.2mb 36f 27f
2:04 1ft 6s 16 18 mph 1006.4mb 36f 28f
1:04 1ft 3s 7 9 mph 1006.2mb 36f 28f
12:04 1ft 3s 9 13 mph 1005.4mb 36f 30f
Sex 02/17 11:04 2ft 3s 22 25 mph 1004.5mb 36f 30f
10:04 2ft 3s 22 27 mph 1004.2mb 36f 30f
9:04 2.5ft 3s 22 29 mph 1003.9mb 36f 30f
8:04 2ft 3s 20 25 mph 1003.5mb 36f 31f
7:04 2ft 3s 13 18 mph 1002.6mb 36f 32f
6:04 2ft 3s 16 18 mph 1001.7mb 36f 33f
5:04 2ft 3s 22 31 mph 1000.3mb 36f 34f
4:04 2ft 6s 20 25 mph 999.3mb 36f 35f
3:04 2ft 3s 22 27 mph 998.4mb 36f 36f
2:04 2ft 3s 22 29 mph 998.4mb 36f 36f
1:04 2ft 3s 25 29 mph 998.4mb 36f 34f
12:04 1.6ft 3s 18 27 mph 998.7mb 36f 33f
11:04 2ft 3s 18 22 mph 999mb 36f 32f
10:04 1.6ft 3s 18 25 mph 999.1mb 36f 30f
9:04 1.6ft 3s 16 22 mph 999mb 36f 29f
8:04 1.6ft 5s 16 18 mph 998.7mb 36f 28f
7:04 2ft 11s 13 18 mph 998mb 36f 27f
6:04 1ft 5s 11 13 mph 997.3mb 36f 26f
5:04 1ft 5s 11 16 mph 997mb 36f 26f
4:04 1ft 2s 9 13 mph 996.7mb 36f 26f
3:04 1ft 5s 9 13 mph 996.2mb 36f 26f
2:04 0.7ft  -  18 22 mph 996mb 36f 26f
1:04 1ft 5s 13 16 mph 996.2mb 36f 26f
12:04 1ft 5s 11 13 mph 996.2mb 36f 26f
Qui 02/16 11:04 1.6ft 11s 11 13 mph 996.2mb 36f 26f
10:04 1.6ft 11s 11 13 mph 996.2mb 36f 27f
9:04 2ft 11s 11 13 mph 996.1mb 36f 28f
8:04 2.5ft 11s 13 18 mph 995.7mb 37f 29f
7:04  -   -  13 16 mph 995.1mb 37f 30f
6:04 3ft 11s 20 25 mph 994.2mb 37f 31f
5:04 1.6ft 3s 18 22 mph 993.1mb 37f 32f
4:04 1.6ft 3s 20 22 mph 991.9mb 36f 32f
3:04 2ft 3s 18 22 mph 991.4mb 37f 31f
2:04  -   -  16 20 mph 991mb 37f 30f
1:04 3ft 11s 18 22 mph 991mb 36f 29f
12:04 1.3ft 3s 13 18 mph 991.7mb 36f 28f
11:04 1.3ft 3s 16 20 mph 992.1mb 36f 27f
10:04 2ft 3s 18 22 mph 992.1mb 36f 26f
9:04 2.5ft 4s 20 25 mph 991.8mb 37f 26f